sensor_id;sensor_type;location;lat;lon;timestamp;P1;durP1;ratioP1;P2;durP2;ratioP2
78848;SDS011;68197;41.864;21.942;2024-01-25T00:00:24;25.55;;;14.32;;
78848;SDS011;68197;41.864;21.942;2024-01-25T00:02:50;23.08;;;14.75;;
78848;SDS011;68197;41.864;21.942;2024-01-25T00:05:17;20.38;;;13.63;;
78848;SDS011;68197;41.864;21.942;2024-01-25T00:07:46;24.08;;;14.68;;
78848;SDS011;68197;41.864;21.942;2024-01-25T00:10:12;24.33;;;13.93;;
78848;SDS011;68197;41.864;21.942;2024-01-25T00:12:40;41.53;;;23.20;;
78848;SDS011;68197;41.864;21.942;2024-01-25T00:15:06;46.00;;;23.85;;
78848;SDS011;68197;41.864;21.942;2024-01-25T00:17:33;61.08;;;32.45;;
78848;SDS011;68197;41.864;21.942;2024-01-25T00:19:59;61.75;;;33.83;;
78848;SDS011;68197;41.864;21.942;2024-01-25T00:22:25;27.52;;;19.52;;
78848;SDS011;68197;41.864;21.942;2024-01-25T00:24:51;27.55;;;17.20;;
78848;SDS011;68197;41.864;21.942;2024-01-25T00:27:17;30.67;;;17.70;;
78848;SDS011;68197;41.864;21.942;2024-01-25T00:29:43;22.25;;;12.93;;
78848;SDS011;68197;41.864;21.942;2024-01-25T00:32:09;37.40;;;22.08;;
78848;SDS011;68197;41.864;21.942;2024-01-25T00:34:36;22.20;;;14.70;;
78848;SDS011;68197;41.864;21.942;2024-01-25T00:37:02;36.65;;;20.02;;
78848;SDS011;68197;41.864;21.942;2024-01-25T00:39:28;28.33;;;17.65;;
78848;SDS011;68197;41.864;21.942;2024-01-25T00:41:56;28.08;;;19.05;;
78848;SDS011;68197;41.864;21.942;2024-01-25T00:44:24;36.63;;;20.33;;
78848;SDS011;68197;41.864;21.942;2024-01-25T00:46:51;40.25;;;23.05;;
78848;SDS011;68197;41.864;21.942;2024-01-25T00:49:18;40.78;;;22.85;;
78848;SDS011;68197;41.864;21.942;2024-01-25T00:51:46;37.17;;;20.63;;
78848;SDS011;68197;41.864;21.942;2024-01-25T00:54:13;38.90;;;21.20;;
78848;SDS011;68197;41.864;21.942;2024-01-25T00:56:39;44.08;;;26.48;;
78848;SDS011;68197;41.864;21.942;2024-01-25T00:59:06;44.90;;;25.27;;
78848;SDS011;68197;41.864;21.942;2024-01-25T01:01:32;50.25;;;29.48;;
78848;SDS011;68197;41.864;21.942;2024-01-25T01:03:58;32.72;;;21.25;;
78848;SDS011;68197;41.864;21.942;2024-01-25T01:06:25;49.75;;;29.02;;
78848;SDS011;68197;41.864;21.942;2024-01-25T01:08:51;60.92;;;35.55;;
78848;SDS011;68197;41.864;21.942;2024-01-25T01:11:18;64.95;;;35.53;;
78848;SDS011;68197;41.864;21.942;2024-01-25T01:13:44;59.90;;;36.15;;
78848;SDS011;68197;41.864;21.942;2024-01-25T01:16:10;60.35;;;35.78;;
78848;SDS011;68197;41.864;21.942;2024-01-25T01:18:36;69.57;;;37.30;;
78848;SDS011;68197;41.864;21.942;2024-01-25T01:21:04;75.30;;;41.35;;
78848;SDS011;68197;41.864;21.942;2024-01-25T01:23:30;56.42;;;33.60;;
78848;SDS011;68197;41.864;21.942;2024-01-25T01:25:56;61.45;;;33.08;;
78848;SDS011;68197;41.864;21.942;2024-01-25T01:28:22;63.30;;;36.45;;
78848;SDS011;68197;41.864;21.942;2024-01-25T01:30:48;63.15;;;36.90;;
78848;SDS011;68197;41.864;21.942;2024-01-25T01:33:14;65.70;;;38.38;;
78848;SDS011;68197;41.864;21.942;2024-01-25T01:35:40;54.80;;;32.00;;
78848;SDS011;68197;41.864;21.942;2024-01-25T01:38:06;41.42;;;22.17;;
78848;SDS011;68197;41.864;21.942;2024-01-25T01:40:33;32.85;;;19.83;;
78848;SDS011;68197;41.864;21.942;2024-01-25T01:42:59;33.08;;;19.15;;
78848;SDS011;68197;41.864;21.942;2024-01-25T01:45:26;34.30;;;18.42;;
78848;SDS011;68197;41.864;21.942;2024-01-25T01:47:52;32.25;;;19.35;;
78848;SDS011;68197;41.864;21.942;2024-01-25T01:50:18;38.85;;;22.20;;
78848;SDS011;68197;41.864;21.942;2024-01-25T01:52:45;40.08;;;24.20;;
78848;SDS011;68197;41.864;21.942;2024-01-25T01:55:12;39.85;;;25.13;;
78848;SDS011;68197;41.864;21.942;2024-01-25T01:57:38;43.60;;;27.05;;
78848;SDS011;68197;41.864;21.942;2024-01-25T02:00:06;53.20;;;29.98;;
78848;SDS011;68197;41.864;21.942;2024-01-25T02:02:33;37.33;;;21.85;;
78848;SDS011;68197;41.864;21.942;2024-01-25T02:04:59;40.13;;;23.05;;
78848;SDS011;68197;41.864;21.942;2024-01-25T02:07:26;30.25;;;15.68;;
78848;SDS011;68197;41.864;21.942;2024-01-25T02:09:52;31.50;;;19.60;;
78848;SDS011;68197;41.864;21.942;2024-01-25T02:12:18;31.00;;;20.77;;
78848;SDS011;68197;41.864;21.942;2024-01-25T02:14:44;30.42;;;17.65;;
78848;SDS011;68197;41.864;21.942;2024-01-25T02:17:11;31.23;;;19.10;;
78848;SDS011;68197;41.864;21.942;2024-01-25T02:19:37;33.53;;;18.52;;
78848;SDS011;68197;41.864;21.942;2024-01-25T02:22:06;27.85;;;18.80;;
78848;SDS011;68197;41.864;21.942;2024-01-25T02:24:32;31.55;;;18.63;;
78848;SDS011;68197;41.864;21.942;2024-01-25T02:26:58;31.60;;;18.10;;
78848;SDS011;68197;41.864;21.942;2024-01-25T02:29:25;25.98;;;17.08;;
78848;SDS011;68197;41.864;21.942;2024-01-25T02:31:51;25.52;;;17.52;;
78848;SDS011;68197;41.864;21.942;2024-01-25T02:34:17;27.70;;;17.40;;
78848;SDS011;68197;41.864;21.942;2024-01-25T02:36:43;25.95;;;17.75;;
78848;SDS011;68197;41.864;21.942;2024-01-25T02:39:09;27.13;;;18.02;;
78848;SDS011;68197;41.864;21.942;2024-01-25T02:41:35;29.13;;;19.23;;
78848;SDS011;68197;41.864;21.942;2024-01-25T02:44:01;31.98;;;19.23;;
78848;SDS011;68197;41.864;21.942;2024-01-25T02:46:28;31.27;;;18.33;;
78848;SDS011;68197;41.864;21.942;2024-01-25T02:48:54;33.97;;;19.98;;
78848;SDS011;68197;41.864;21.942;2024-01-25T02:51:20;25.27;;;18.33;;
78848;SDS011;68197;41.864;21.942;2024-01-25T02:53:46;33.88;;;20.48;;
78848;SDS011;68197;41.864;21.942;2024-01-25T02:56:12;28.42;;;20.23;;
78848;SDS011;68197;41.864;21.942;2024-01-25T02:58:38;29.48;;;18.48;;
78848;SDS011;68197;41.864;21.942;2024-01-25T03:01:04;44.58;;;26.50;;
78848;SDS011;68197;41.864;21.942;2024-01-25T03:03:30;36.53;;;20.02;;
78848;SDS011;68197;41.864;21.942;2024-01-25T03:05:57;35.55;;;21.55;;
78848;SDS011;68197;41.864;21.942;2024-01-25T03:08:23;31.00;;;17.05;;
78848;SDS011;68197;41.864;21.942;2024-01-25T03:10:49;28.67;;;18.98;;
78848;SDS011;68197;41.864;21.942;2024-01-25T03:13:15;34.75;;;21.35;;
78848;SDS011;68197;41.864;21.942;2024-01-25T03:15:42;29.35;;;19.88;;
78848;SDS011;68197;41.864;21.942;2024-01-25T03:18:09;32.83;;;20.58;;
78848;SDS011;68197;41.864;21.942;2024-01-25T03:20:35;28.67;;;18.38;;
78848;SDS011;68197;41.864;21.942;2024-01-25T03:23:01;30.55;;;19.10;;
78848;SDS011;68197;41.864;21.942;2024-01-25T03:25:28;29.10;;;19.75;;
78848;SDS011;68197;41.864;21.942;2024-01-25T03:27:54;29.85;;;18.75;;
78848;SDS011;68197;41.864;21.942;2024-01-25T03:30:20;29.40;;;19.73;;
78848;SDS011;68197;41.864;21.942;2024-01-25T03:32:46;41.10;;;24.50;;
78848;SDS011;68197;41.864;21.942;2024-01-25T03:35:12;39.40;;;25.30;;
78848;SDS011;68197;41.864;21.942;2024-01-25T03:37:38;38.13;;;24.67;;
78848;SDS011;68197;41.864;21.942;2024-01-25T03:40:05;39.78;;;24.30;;
78848;SDS011;68197;41.864;21.942;2024-01-25T03:42:31;32.78;;;20.02;;
78848;SDS011;68197;41.864;21.942;2024-01-25T03:44:57;38.33;;;21.08;;
78848;SDS011;68197;41.864;21.942;2024-01-25T03:47:23;38.75;;;20.48;;
78848;SDS011;68197;41.864;21.942;2024-01-25T03:49:49;38.38;;;25.00;;
78848;SDS011;68197;41.864;21.942;2024-01-25T03:52:15;35.65;;;24.63;;
78848;SDS011;68197;41.864;21.942;2024-01-25T03:54:42;38.40;;;23.45;;
78848;SDS011;68197;41.864;21.942;2024-01-25T03:57:08;42.35;;;24.88;;
78848;SDS011;68197;41.864;21.942;2024-01-25T03:59:34;38.67;;;27.20;;
78848;SDS011;68197;41.864;21.942;2024-01-25T04:02:00;64.65;;;38.28;;
78848;SDS011;68197;41.864;21.942;2024-01-25T04:04:26;59.65;;;35.10;;
78848;SDS011;68197;41.864;21.942;2024-01-25T04:06:52;46.90;;;26.30;;
78848;SDS011;68197;41.864;21.942;2024-01-25T04:09:18;54.85;;;34.60;;
78848;SDS011;68197;41.864;21.942;2024-01-25T04:11:44;45.33;;;30.92;;
78848;SDS011;68197;41.864;21.942;2024-01-25T04:14:11;49.75;;;31.65;;
78848;SDS011;68197;41.864;21.942;2024-01-25T04:16:37;48.97;;;28.63;;
78848;SDS011;68197;41.864;21.942;2024-01-25T04:19:03;47.42;;;29.90;;
78848;SDS011;68197;41.864;21.942;2024-01-25T04:21:29;48.10;;;29.77;;
78848;SDS011;68197;41.864;21.942;2024-01-25T04:23:55;41.35;;;26.25;;
78848;SDS011;68197;41.864;21.942;2024-01-25T04:26:21;45.42;;;25.65;;
78848;SDS011;68197;41.864;21.942;2024-01-25T04:28:48;40.35;;;23.27;;
78848;SDS011;68197;41.864;21.942;2024-01-25T04:31:14;46.47;;;27.20;;
78848;SDS011;68197;41.864;21.942;2024-01-25T04:33:41;42.38;;;24.95;;
78848;SDS011;68197;41.864;21.942;2024-01-25T04:36:07;45.00;;;25.90;;
78848;SDS011;68197;41.864;21.942;2024-01-25T04:38:33;37.13;;;22.00;;
78848;SDS011;68197;41.864;21.942;2024-01-25T04:41:00;32.60;;;20.02;;
78848;SDS011;68197;41.864;21.942;2024-01-25T04:43:26;31.10;;;19.13;;
78848;SDS011;68197;41.864;21.942;2024-01-25T04:45:52;22.27;;;15.80;;
78848;SDS011;68197;41.864;21.942;2024-01-25T04:48:18;20.92;;;14.55;;
78848;SDS011;68197;41.864;21.942;2024-01-25T04:50:44;33.58;;;21.10;;
78848;SDS011;68197;41.864;21.942;2024-01-25T04:53:10;51.60;;;29.42;;
78848;SDS011;68197;41.864;21.942;2024-01-25T04:55:36;47.05;;;27.33;;
78848;SDS011;68197;41.864;21.942;2024-01-25T04:58:02;38.95;;;24.73;;
78848;SDS011;68197;41.864;21.942;2024-01-25T05:00:28;31.42;;;18.05;;
78848;SDS011;68197;41.864;21.942;2024-01-25T05:02:54;36.15;;;22.35;;
78848;SDS011;68197;41.864;21.942;2024-01-25T05:05:21;35.47;;;20.92;;
78848;SDS011;68197;41.864;21.942;2024-01-25T05:07:47;35.08;;;18.90;;
78848;SDS011;68197;41.864;21.942;2024-01-25T05:10:13;42.22;;;27.17;;
78848;SDS011;68197;41.864;21.942;2024-01-25T05:12:40;48.78;;;26.45;;
78848;SDS011;68197;41.864;21.942;2024-01-25T05:15:06;37.22;;;24.13;;
78848;SDS011;68197;41.864;21.942;2024-01-25T05:17:33;41.83;;;26.25;;
78848;SDS011;68197;41.864;21.942;2024-01-25T05:19:59;48.50;;;27.98;;
78848;SDS011;68197;41.864;21.942;2024-01-25T05:22:25;39.22;;;24.40;;
78848;SDS011;68197;41.864;21.942;2024-01-25T05:24:51;31.73;;;22.35;;
78848;SDS011;68197;41.864;21.942;2024-01-25T05:27:17;47.67;;;37.70;;
78848;SDS011;68197;41.864;21.942;2024-01-25T05:29:43;45.90;;;34.05;;
78848;SDS011;68197;41.864;21.942;2024-01-25T05:32:10;26.48;;;18.30;;
78848;SDS011;68197;41.864;21.942;2024-01-25T05:34:36;51.30;;;30.77;;
78848;SDS011;68197;41.864;21.942;2024-01-25T05:37:02;44.85;;;27.17;;
78848;SDS011;68197;41.864;21.942;2024-01-25T05:39:28;46.65;;;27.83;;
78848;SDS011;68197;41.864;21.942;2024-01-25T05:41:54;47.53;;;28.08;;
78848;SDS011;68197;41.864;21.942;2024-01-25T05:44:20;48.38;;;28.52;;
78848;SDS011;68197;41.864;21.942;2024-01-25T05:46:46;45.63;;;27.95;;
78848;SDS011;68197;41.864;21.942;2024-01-25T05:49:13;34.53;;;24.40;;
78848;SDS011;68197;41.864;21.942;2024-01-25T05:51:39;39.78;;;24.77;;
78848;SDS011;68197;41.864;21.942;2024-01-25T05:54:05;46.80;;;28.17;;
78848;SDS011;68197;41.864;21.942;2024-01-25T05:56:31;46.35;;;28.80;;
78848;SDS011;68197;41.864;21.942;2024-01-25T05:58:57;45.92;;;28.42;;
78848;SDS011;68197;41.864;21.942;2024-01-25T06:01:24;63.03;;;38.53;;
78848;SDS011;68197;41.864;21.942;2024-01-25T06:03:50;67.15;;;40.53;;
78848;SDS011;68197;41.864;21.942;2024-01-25T06:06:16;63.53;;;39.35;;
78848;SDS011;68197;41.864;21.942;2024-01-25T06:08:42;61.83;;;39.17;;
78848;SDS011;68197;41.864;21.942;2024-01-25T06:11:08;81.90;;;51.72;;
78848;SDS011;68197;41.864;21.942;2024-01-25T06:13:34;52.95;;;34.10;;
78848;SDS011;68197;41.864;21.942;2024-01-25T06:16:01;46.45;;;26.48;;
78848;SDS011;68197;41.864;21.942;2024-01-25T06:18:27;49.92;;;30.13;;
78848;SDS011;68197;41.864;21.942;2024-01-25T06:20:53;43.13;;;25.05;;
78848;SDS011;68197;41.864;21.942;2024-01-25T06:23:19;42.83;;;26.05;;
78848;SDS011;68197;41.864;21.942;2024-01-25T06:25:45;44.00;;;27.67;;
78848;SDS011;68197;41.864;21.942;2024-01-25T06:28:11;42.72;;;29.80;;
78848;SDS011;68197;41.864;21.942;2024-01-25T06:30:37;46.67;;;30.52;;
78848;SDS011;68197;41.864;21.942;2024-01-25T06:33:04;45.33;;;28.83;;
78848;SDS011;68197;41.864;21.942;2024-01-25T06:35:30;53.15;;;34.28;;
78848;SDS011;68197;41.864;21.942;2024-01-25T06:37:56;66.30;;;45.88;;
78848;SDS011;68197;41.864;21.942;2024-01-25T06:40:22;163.90;;;86.97;;
78848;SDS011;68197;41.864;21.942;2024-01-25T06:42:49;126.82;;;76.85;;
78848;SDS011;68197;41.864;21.942;2024-01-25T06:45:15;94.40;;;58.63;;
78848;SDS011;68197;41.864;21.942;2024-01-25T06:47:42;92.53;;;55.30;;
78848;SDS011;68197;41.864;21.942;2024-01-25T06:50:08;70.47;;;45.17;;
78848;SDS011;68197;41.864;21.942;2024-01-25T06:52:34;65.05;;;41.78;;
78848;SDS011;68197;41.864;21.942;2024-01-25T06:55:01;74.95;;;48.80;;
78848;SDS011;68197;41.864;21.942;2024-01-25T06:57:27;75.68;;;46.17;;
78848;SDS011;68197;41.864;21.942;2024-01-25T06:59:53;40.60;;;28.35;;
78848;SDS011;68197;41.864;21.942;2024-01-25T07:02:19;98.32;;;49.25;;
78848;SDS011;68197;41.864;21.942;2024-01-25T07:04:45;102.25;;;54.72;;
78848;SDS011;68197;41.864;21.942;2024-01-25T07:07:11;53.60;;;32.53;;
78848;SDS011;68197;41.864;21.942;2024-01-25T07:09:37;59.33;;;35.83;;
78848;SDS011;68197;41.864;21.942;2024-01-25T07:12:03;49.92;;;31.40;;
78848;SDS011;68197;41.864;21.942;2024-01-25T07:14:30;65.88;;;42.40;;
78848;SDS011;68197;41.864;21.942;2024-01-25T07:16:56;69.95;;;38.83;;
78848;SDS011;68197;41.864;21.942;2024-01-25T07:19:22;64.93;;;42.30;;
78848;SDS011;68197;41.864;21.942;2024-01-25T07:21:49;45.10;;;27.08;;
78848;SDS011;68197;41.864;21.942;2024-01-25T07:24:15;45.40;;;29.83;;
78848;SDS011;68197;41.864;21.942;2024-01-25T07:26:41;41.20;;;31.08;;
78848;SDS011;68197;41.864;21.942;2024-01-25T07:29:07;36.20;;;25.13;;
78848;SDS011;68197;41.864;21.942;2024-01-25T07:31:33;55.28;;;36.72;;
78848;SDS011;68197;41.864;21.942;2024-01-25T07:33:59;49.50;;;30.23;;
78848;SDS011;68197;41.864;21.942;2024-01-25T07:36:25;54.75;;;36.17;;
78848;SDS011;68197;41.864;21.942;2024-01-25T07:38:51;60.95;;;38.47;;
78848;SDS011;68197;41.864;21.942;2024-01-25T07:41:17;101.82;;;48.63;;
78848;SDS011;68197;41.864;21.942;2024-01-25T07:43:43;64.30;;;40.13;;
78848;SDS011;68197;41.864;21.942;2024-01-25T07:46:10;135.65;;;81.50;;
78848;SDS011;68197;41.864;21.942;2024-01-25T07:48:36;104.32;;;65.38;;
78848;SDS011;68197;41.864;21.942;2024-01-25T07:51:02;46.60;;;30.27;;
78848;SDS011;68197;41.864;21.942;2024-01-25T07:53:28;61.60;;;33.92;;
78848;SDS011;68197;41.864;21.942;2024-01-25T07:55:54;48.45;;;30.38;;
78848;SDS011;68197;41.864;21.942;2024-01-25T07:58:21;45.42;;;31.13;;
78848;SDS011;68197;41.864;21.942;2024-01-25T08:00:47;33.88;;;22.70;;
78848;SDS011;68197;41.864;21.942;2024-01-25T08:03:14;25.63;;;19.00;;
78848;SDS011;68197;41.864;21.942;2024-01-25T08:05:40;41.75;;;28.17;;
78848;SDS011;68197;41.864;21.942;2024-01-25T08:08:06;71.55;;;44.15;;
78848;SDS011;68197;41.864;21.942;2024-01-25T08:10:33;51.05;;;34.60;;
78848;SDS011;68197;41.864;21.942;2024-01-25T08:12:59;49.60;;;32.67;;
78848;SDS011;68197;41.864;21.942;2024-01-25T08:15:25;50.72;;;30.35;;
78848;SDS011;68197;41.864;21.942;2024-01-25T08:17:51;48.67;;;30.08;;
78848;SDS011;68197;41.864;21.942;2024-01-25T08:20:17;54.28;;;31.27;;
78848;SDS011;68197;41.864;21.942;2024-01-25T08:22:44;54.08;;;28.17;;
78848;SDS011;68197;41.864;21.942;2024-01-25T08:25:11;64.78;;;38.58;;
78848;SDS011;68197;41.864;21.942;2024-01-25T08:27:39;83.95;;;51.63;;
78848;SDS011;68197;41.864;21.942;2024-01-25T08:30:05;95.95;;;53.90;;
78848;SDS011;68197;41.864;21.942;2024-01-25T08:32:32;98.30;;;60.67;;
78848;SDS011;68197;41.864;21.942;2024-01-25T08:34:58;80.03;;;48.08;;
78848;SDS011;68197;41.864;21.942;2024-01-25T08:37:24;39.35;;;27.45;;
78848;SDS011;68197;41.864;21.942;2024-01-25T08:39:50;37.38;;;27.08;;
78848;SDS011;68197;41.864;21.942;2024-01-25T08:42:17;30.52;;;18.13;;
78848;SDS011;68197;41.864;21.942;2024-01-25T08:44:43;30.48;;;22.70;;
78848;SDS011;68197;41.864;21.942;2024-01-25T08:47:17;33.67;;;23.20;;
78848;SDS011;68197;41.864;21.942;2024-01-25T08:49:44;39.58;;;29.17;;
78848;SDS011;68197;41.864;21.942;2024-01-25T08:52:10;45.90;;;26.50;;
78848;SDS011;68197;41.864;21.942;2024-01-25T08:54:36;35.55;;;22.60;;
78848;SDS011;68197;41.864;21.942;2024-01-25T08:57:03;49.47;;;33.45;;
78848;SDS011;68197;41.864;21.942;2024-01-25T08:59:30;37.90;;;26.23;;
78848;SDS011;68197;41.864;21.942;2024-01-25T09:01:58;35.17;;;25.50;;
78848;SDS011;68197;41.864;21.942;2024-01-25T09:04:24;33.25;;;25.13;;
78848;SDS011;68197;41.864;21.942;2024-01-25T09:06:50;29.90;;;19.92;;
78848;SDS011;68197;41.864;21.942;2024-01-25T09:09:17;33.15;;;24.45;;
78848;SDS011;68197;41.864;21.942;2024-01-25T09:11:43;32.58;;;22.63;;
78848;SDS011;68197;41.864;21.942;2024-01-25T09:14:09;30.15;;;17.83;;
78848;SDS011;68197;41.864;21.942;2024-01-25T09:16:35;32.15;;;20.45;;
78848;SDS011;68197;41.864;21.942;2024-01-25T09:19:03;35.15;;;22.40;;
78848;SDS011;68197;41.864;21.942;2024-01-25T09:21:30;26.42;;;18.98;;
78848;SDS011;68197;41.864;21.942;2024-01-25T09:23:56;39.17;;;26.23;;
78848;SDS011;68197;41.864;21.942;2024-01-25T09:26:22;40.33;;;24.50;;
78848;SDS011;68197;41.864;21.942;2024-01-25T09:28:48;32.72;;;21.80;;
78848;SDS011;68197;41.864;21.942;2024-01-25T09:31:14;30.33;;;22.50;;
78848;SDS011;68197;41.864;21.942;2024-01-25T09:33:40;28.48;;;19.63;;
78848;SDS011;68197;41.864;21.942;2024-01-25T09:36:06;33.47;;;23.45;;
78848;SDS011;68197;41.864;21.942;2024-01-25T09:38:32;30.02;;;22.05;;
78848;SDS011;68197;41.864;21.942;2024-01-25T09:40:59;32.15;;;23.25;;
78848;SDS011;68197;41.864;21.942;2024-01-25T09:43:26;73.38;;;42.50;;
78848;SDS011;68197;41.864;21.942;2024-01-25T09:45:55;55.85;;;34.05;;
78848;SDS011;68197;41.864;21.942;2024-01-25T09:48:21;33.28;;;20.23;;
78848;SDS011;68197;41.864;21.942;2024-01-25T09:50:47;31.70;;;21.48;;
78848;SDS011;68197;41.864;21.942;2024-01-25T09:53:23;33.45;;;23.25;;
78848;SDS011;68197;41.864;21.942;2024-01-25T09:55:56;31.48;;;23.67;;
78848;SDS011;68197;41.864;21.942;2024-01-25T09:58:23;28.90;;;21.52;;
78848;SDS011;68197;41.864;21.942;2024-01-25T10:00:50;26.98;;;21.35;;
78848;SDS011;68197;41.864;21.942;2024-01-25T10:03:17;22.52;;;17.15;;
78848;SDS011;68197;41.864;21.942;2024-01-25T10:05:43;37.33;;;22.67;;
78848;SDS011;68197;41.864;21.942;2024-01-25T10:08:12;26.08;;;18.27;;
78848;SDS011;68197;41.864;21.942;2024-01-25T10:10:39;28.98;;;19.23;;
78848;SDS011;68197;41.864;21.942;2024-01-25T10:13:05;27.95;;;20.77;;
78848;SDS011;68197;41.864;21.942;2024-01-25T10:15:37;39.28;;;22.73;;
78848;SDS011;68197;41.864;21.942;2024-01-25T10:18:06;123.80;;;85.55;;
78848;SDS011;68197;41.864;21.942;2024-01-25T10:20:38;52.75;;;36.58;;
78848;SDS011;68197;41.864;21.942;2024-01-25T10:23:05;28.25;;;19.98;;
78848;SDS011;68197;41.864;21.942;2024-01-25T10:25:35;21.95;;;16.60;;
78848;SDS011;68197;41.864;21.942;2024-01-25T10:28:07;31.58;;;23.50;;
78848;SDS011;68197;41.864;21.942;2024-01-25T10:30:34;19.55;;;15.70;;
78848;SDS011;68197;41.864;21.942;2024-01-25T10:33:01;21.83;;;15.18;;
78848;SDS011;68197;41.864;21.942;2024-01-25T10:35:28;19.13;;;14.55;;
78848;SDS011;68197;41.864;21.942;2024-01-25T10:37:54;26.80;;;19.95;;
78848;SDS011;68197;41.864;21.942;2024-01-25T10:40:21;21.13;;;13.77;;
78848;SDS011;68197;41.864;21.942;2024-01-25T10:42:47;23.17;;;18.08;;
78848;SDS011;68197;41.864;21.942;2024-01-25T10:45:14;24.38;;;19.77;;
78848;SDS011;68197;41.864;21.942;2024-01-25T10:47:40;22.02;;;14.20;;
78848;SDS011;68197;41.864;21.942;2024-01-25T10:50:07;17.08;;;14.23;;
78848;SDS011;68197;41.864;21.942;2024-01-25T10:52:37;16.27;;;12.90;;
78848;SDS011;68197;41.864;21.942;2024-01-25T10:55:03;25.67;;;17.20;;
78848;SDS011;68197;41.864;21.942;2024-01-25T10:57:36;20.52;;;11.85;;
78848;SDS011;68197;41.864;21.942;2024-01-25T11:00:06;18.58;;;14.05;;
78848;SDS011;68197;41.864;21.942;2024-01-25T11:02:34;18.88;;;14.40;;
78848;SDS011;68197;41.864;21.942;2024-01-25T11:05:00;18.38;;;12.68;;
78848;SDS011;68197;41.864;21.942;2024-01-25T11:07:28;19.80;;;15.05;;
78848;SDS011;68197;41.864;21.942;2024-01-25T11:09:54;17.48;;;13.43;;
78848;SDS011;68197;41.864;21.942;2024-01-25T11:12:20;23.70;;;16.40;;
78848;SDS011;68197;41.864;21.942;2024-01-25T11:14:53;24.80;;;17.38;;
78848;SDS011;68197;41.864;21.942;2024-01-25T11:17:21;27.45;;;18.48;;
78848;SDS011;68197;41.864;21.942;2024-01-25T11:19:48;31.35;;;21.00;;
78848;SDS011;68197;41.864;21.942;2024-01-25T11:22:15;28.23;;;21.83;;
78848;SDS011;68197;41.864;21.942;2024-01-25T11:24:41;36.83;;;24.25;;
78848;SDS011;68197;41.864;21.942;2024-01-25T11:27:08;38.00;;;26.27;;
78848;SDS011;68197;41.864;21.942;2024-01-25T11:29:35;50.75;;;34.92;;
78848;SDS011;68197;41.864;21.942;2024-01-25T11:32:01;49.83;;;36.05;;
78848;SDS011;68197;41.864;21.942;2024-01-25T11:34:28;71.50;;;51.70;;
78848;SDS011;68197;41.864;21.942;2024-01-25T11:36:56;67.78;;;45.35;;
78848;SDS011;68197;41.864;21.942;2024-01-25T11:39:25;61.28;;;40.08;;
78848;SDS011;68197;41.864;21.942;2024-01-25T11:41:51;65.40;;;42.72;;
78848;SDS011;68197;41.864;21.942;2024-01-25T11:44:18;18.83;;;13.73;;
78848;SDS011;68197;41.864;21.942;2024-01-25T11:46:44;24.33;;;15.40;;
78848;SDS011;68197;41.864;21.942;2024-01-25T11:49:10;33.70;;;22.20;;
78848;SDS011;68197;41.864;21.942;2024-01-25T11:51:37;33.28;;;19.27;;
78848;SDS011;68197;41.864;21.942;2024-01-25T11:54:03;34.22;;;20.30;;
78848;SDS011;68197;41.864;21.942;2024-01-25T11:56:32;38.95;;;25.05;;
78848;SDS011;68197;41.864;21.942;2024-01-25T11:58:59;42.45;;;28.58;;
78848;SDS011;68197;41.864;21.942;2024-01-25T12:01:26;25.73;;;17.17;;
78848;SDS011;68197;41.864;21.942;2024-01-25T12:03:52;16.25;;;10.45;;
78848;SDS011;68197;41.864;21.942;2024-01-25T12:06:19;16.05;;;10.80;;
78848;SDS011;68197;41.864;21.942;2024-01-25T12:08:45;17.77;;;11.27;;
78848;SDS011;68197;41.864;21.942;2024-01-25T12:11:13;15.30;;;10.50;;
78848;SDS011;68197;41.864;21.942;2024-01-25T12:13:40;16.80;;;10.13;;
78848;SDS011;68197;41.864;21.942;2024-01-25T12:16:10;18.88;;;11.30;;
78848;SDS011;68197;41.864;21.942;2024-01-25T12:18:37;17.73;;;9.23;;
78848;SDS011;68197;41.864;21.942;2024-01-25T12:21:04;15.52;;;10.38;;
78848;SDS011;68197;41.864;21.942;2024-01-25T12:23:39;18.42;;;11.63;;
78848;SDS011;68197;41.864;21.942;2024-01-25T12:26:06;20.42;;;9.85;;
78848;SDS011;68197;41.864;21.942;2024-01-25T12:28:32;20.70;;;10.00;;
78848;SDS011;68197;41.864;21.942;2024-01-25T12:31:05;18.80;;;10.57;;
78848;SDS011;68197;41.864;21.942;2024-01-25T12:33:33;19.08;;;9.52;;
78848;SDS011;68197;41.864;21.942;2024-01-25T12:35:59;21.48;;;9.57;;
78848;SDS011;68197;41.864;21.942;2024-01-25T12:38:26;19.20;;;10.45;;
78848;SDS011;68197;41.864;21.942;2024-01-25T12:40:52;18.45;;;10.73;;
78848;SDS011;68197;41.864;21.942;2024-01-25T12:43:19;17.27;;;10.32;;
78848;SDS011;68197;41.864;21.942;2024-01-25T12:45:48;21.50;;;12.48;;
78848;SDS011;68197;41.864;21.942;2024-01-25T12:48:14;23.25;;;11.50;;
78848;SDS011;68197;41.864;21.942;2024-01-25T12:50:41;78.65;;;49.03;;
78848;SDS011;68197;41.864;21.942;2024-01-25T12:53:07;24.70;;;14.98;;
78848;SDS011;68197;41.864;21.942;2024-01-25T12:55:33;21.45;;;11.52;;
78848;SDS011;68197;41.864;21.942;2024-01-25T12:58:00;16.88;;;8.65;;
78848;SDS011;68197;41.864;21.942;2024-01-25T13:00:26;16.77;;;10.38;;
78848;SDS011;68197;41.864;21.942;2024-01-25T13:02:52;12.77;;;7.70;;
78848;SDS011;68197;41.864;21.942;2024-01-25T13:05:19;19.20;;;11.43;;
78848;SDS011;68197;41.864;21.942;2024-01-25T13:07:46;23.55;;;13.27;;
78848;SDS011;68197;41.864;21.942;2024-01-25T13:10:12;16.25;;;9.27;;
78848;SDS011;68197;41.864;21.942;2024-01-25T13:12:38;14.60;;;9.32;;
78848;SDS011;68197;41.864;21.942;2024-01-25T13:15:05;11.98;;;6.70;;
78848;SDS011;68197;41.864;21.942;2024-01-25T13:17:31;22.30;;;14.00;;
78848;SDS011;68197;41.864;21.942;2024-01-25T13:19:57;22.40;;;11.80;;
78848;SDS011;68197;41.864;21.942;2024-01-25T13:22:23;19.20;;;11.93;;
78848;SDS011;68197;41.864;21.942;2024-01-25T13:24:50;21.50;;;13.13;;
78848;SDS011;68197;41.864;21.942;2024-01-25T13:27:16;16.02;;;10.80;;
78848;SDS011;68197;41.864;21.942;2024-01-25T13:29:42;20.00;;;10.65;;
78848;SDS011;68197;41.864;21.942;2024-01-25T13:32:08;17.05;;;11.68;;
78848;SDS011;68197;41.864;21.942;2024-01-25T13:34:35;20.27;;;11.10;;
78848;SDS011;68197;41.864;21.942;2024-01-25T13:37:01;20.38;;;11.60;;
78848;SDS011;68197;41.864;21.942;2024-01-25T13:39:27;14.93;;;9.85;;
78848;SDS011;68197;41.864;21.942;2024-01-25T13:41:54;18.30;;;10.80;;
78848;SDS011;68197;41.864;21.942;2024-01-25T13:44:21;18.90;;;10.88;;
78848;SDS011;68197;41.864;21.942;2024-01-25T13:46:48;17.70;;;12.88;;
78848;SDS011;68197;41.864;21.942;2024-01-25T13:49:15;15.73;;;11.88;;
78848;SDS011;68197;41.864;21.942;2024-01-25T13:51:41;16.65;;;10.65;;
78848;SDS011;68197;41.864;21.942;2024-01-25T13:54:07;18.08;;;10.10;;
78848;SDS011;68197;41.864;21.942;2024-01-25T13:56:33;18.95;;;11.52;;
78848;SDS011;68197;41.864;21.942;2024-01-25T13:58:59;21.48;;;13.00;;
78848;SDS011;68197;41.864;21.942;2024-01-25T14:01:25;25.45;;;13.45;;
78848;SDS011;68197;41.864;21.942;2024-01-25T14:03:51;18.58;;;8.63;;